createdAt,value
2022-09-12T00:00:45.242Z,99110.00
2022-09-12T00:03:12.161Z,99111.00
2022-09-12T00:05:47.338Z,99106.00
2022-09-12T00:08:15.195Z,99110.00
2022-09-12T00:10:44.397Z,99100.00
2022-09-12T00:13:12.194Z,99115.00
2022-09-12T00:15:44.419Z,99114.00
2022-09-12T00:18:16.342Z,99112.00
2022-09-12T00:20:45.463Z,99100.00
2022-09-12T00:23:13.807Z,99104.00
2022-09-12T00:25:46.790Z,99110.00
2022-09-12T00:28:16.630Z,99101.00
2022-09-12T00:30:46.251Z,99103.00
2022-09-12T00:33:15.366Z,99101.00
2022-09-12T00:35:43.329Z,99100.00
2022-09-12T00:38:11.322Z,99093.00
2022-09-12T00:40:38.341Z,99098.00
2022-09-12T00:43:06.252Z,99084.00
2022-09-12T00:45:33.232Z,99108.00
2022-09-12T00:48:04.421Z,99100.00
2022-09-12T00:50:32.981Z,99100.00
2022-09-12T00:53:07.513Z,99095.00
2022-09-12T00:55:44.311Z,99109.00
2022-09-12T00:58:26.269Z,99092.00
2022-09-12T01:00:53.179Z,99105.00
2022-09-12T01:03:23.358Z,99093.00
2022-09-12T01:06:05.327Z,99104.00
2022-09-12T01:08:37.233Z,99105.00
2022-09-12T01:11:06.669Z,99088.00
2022-09-12T01:13:36.290Z,99092.00
2022-09-12T01:16:06.045Z,99087.00
2022-09-12T01:18:49.229Z,99087.00
2022-09-12T01:21:31.189Z,99083.00
2022-09-12T01:24:27.759Z,99075.00
2022-09-12T01:27:34.163Z,99072.00
2022-09-12T01:30:24.994Z,99082.00
2022-09-12T01:33:21.102Z,99085.00
2022-09-12T01:36:11.213Z,99071.00
2022-09-12T01:38:45.130Z,99069.00
2022-09-12T01:41:21.785Z,99071.00
2022-09-12T01:44:27.382Z,99070.00
2022-09-12T01:47:30.638Z,99071.00
2022-09-12T01:50:06.829Z,99055.00
2022-09-12T01:52:43.962Z,99058.00
2022-09-12T01:55:25.402Z,99052.00
2022-09-12T01:58:21.195Z,99071.00
2022-09-12T02:01:16.579Z,99061.00
2022-09-12T02:04:13.954Z,99063.00
2022-09-12T02:06:54.762Z,99039.00
2022-09-12T02:09:32.077Z,99050.00
2022-09-12T02:12:03.818Z,99032.00
2022-09-12T02:14:42.577Z,99039.00
2022-09-12T02:17:18.705Z,99052.00
2022-09-12T02:20:17.765Z,99033.00
2022-09-12T02:23:00.299Z,99047.00
2022-09-12T02:25:30.352Z,99043.00
2022-09-12T02:28:14.170Z,99026.00
2022-09-12T02:31:12.961Z,99029.00
2022-09-12T02:33:53.329Z,99027.00
2022-09-12T02:36:46.495Z,99037.00
2022-09-12T02:39:13.622Z,99040.00
2022-09-12T02:41:40.433Z,99032.00
2022-09-12T02:44:07.335Z,99040.00
2022-09-12T02:46:43.630Z,99037.00
2022-09-12T02:49:10.648Z,99037.00
2022-09-12T02:51:38.285Z,99031.00
2022-09-12T02:54:07.497Z,99025.00
2022-09-12T02:56:34.332Z,99022.00
2022-09-12T02:59:09.454Z,99033.00
2022-09-12T03:01:45.493Z,99041.00
2022-09-12T03:04:21.554Z,99033.00
2022-09-12T03:07:12.527Z,99025.00
2022-09-12T03:10:04.042Z,99032.00
2022-09-12T03:12:57.070Z,99037.00
2022-09-12T03:16:11.087Z,99038.00
2022-09-12T03:18:52.265Z,99039.00
2022-09-12T03:22:10.822Z,99040.00
2022-09-12T03:24:47.576Z,99049.00
2022-09-12T03:27:25.844Z,99040.00
2022-09-12T03:29:55.239Z,99030.00
2022-09-12T03:32:44.101Z,99060.00
2022-09-12T03:35:12.430Z,99042.00
2022-09-12T03:37:39.478Z,99047.00
2022-09-12T03:40:08.954Z,99049.00
2022-09-12T03:42:36.005Z,99033.00
2022-09-12T03:45:03.150Z,99043.00
2022-09-12T03:47:30.262Z,99044.00
2022-09-12T03:49:57.054Z,99028.00
2022-09-12T03:52:24.270Z,99047.00
2022-09-12T03:54:51.149Z,99029.00
2022-09-12T03:57:18.664Z,99042.00
2022-09-12T03:59:45.519Z,99032.00
2022-09-12T04:02:13.004Z,99007.00
2022-09-12T04:04:43.182Z,99009.00
2022-09-12T04:07:11.122Z,99019.00
2022-09-12T04:09:37.984Z,99013.00
2022-09-12T04:12:05.931Z,99015.00
2022-09-12T04:14:32.846Z,99015.00
2022-09-12T04:17:00.182Z,99000.00
2022-09-12T04:19:27.878Z,99000.00
2022-09-12T04:21:54.760Z,98991.00
2022-09-12T04:24:21.547Z,99012.00
2022-09-12T04:26:48.362Z,98990.00
2022-09-12T04:29:15.634Z,99011.00
2022-09-12T04:31:43.054Z,98997.00
2022-09-12T04:34:09.923Z,99018.00
2022-09-12T04:36:37.306Z,98997.00
2022-09-12T04:39:05.504Z,99022.00
2022-09-12T04:41:38.940Z,99021.00
2022-09-12T04:44:13.383Z,99033.00
2022-09-12T04:46:45.387Z,99024.00
2022-09-12T04:49:14.298Z,99033.00
2022-09-12T04:51:42.296Z,99039.00
2022-09-12T04:54:20.150Z,99041.00
2022-09-12T04:56:50.190Z,99033.00
2022-09-12T04:59:20.234Z,99031.00
2022-09-12T05:01:48.334Z,99043.00
2022-09-12T05:04:15.823Z,99033.00
2022-09-12T05:06:44.142Z,99033.00
2022-09-12T05:09:14.123Z,99035.00
2022-09-12T05:14:34.180Z,99039.00
2022-09-12T05:17:02.962Z,99033.00
2022-09-12T05:19:31.158Z,99032.00
2022-09-12T05:21:58.981Z,99036.00
2022-09-12T05:24:26.016Z,99026.00
2022-09-12T05:26:53.162Z,99040.00
2022-09-12T05:29:20.040Z,99023.00
2022-09-12T05:31:50.082Z,99038.00
2022-09-12T05:34:16.901Z,99033.00
2022-09-12T05:36:43.671Z,99022.00
2022-09-12T05:39:10.541Z,99023.00
2022-09-12T05:41:37.502Z,99034.00
2022-09-12T05:44:07.559Z,99028.00
2022-09-12T05:46:41.399Z,99028.00
2022-09-12T05:49:12.682Z,99029.00
2022-09-12T05:51:43.891Z,99030.00
2022-09-12T05:54:14.163Z,99024.00
2022-09-12T05:56:43.975Z,99024.00
2022-09-12T05:59:20.469Z,99017.00
2022-09-12T06:01:48.621Z,98997.00
2022-09-12T06:04:16.050Z,99000.00
2022-09-12T06:06:45.413Z,99009.00
2022-09-12T06:09:17.301Z,98982.00
2022-09-12T06:11:46.431Z,99017.00
2022-09-12T06:14:16.924Z,99010.00
2022-09-12T06:16:44.115Z,99024.00
2022-09-12T06:19:21.524Z,99013.00
2022-09-12T06:21:49.688Z,99020.00
2022-09-12T06:24:18.750Z,99026.00
2022-09-12T06:26:47.497Z,99019.00
2022-09-12T06:29:14.804Z,99006.00
2022-09-12T06:31:43.422Z,99022.00
2022-09-12T06:34:14.247Z,99038.00
2022-09-12T06:36:44.974Z,99041.00
2022-09-12T06:39:22.211Z,99028.00
2022-09-12T06:41:52.915Z,99025.00
2022-09-12T06:44:22.427Z,99040.00
2022-09-12T06:46:49.962Z,99037.00
2022-09-12T06:49:17.913Z,99037.00
2022-09-12T06:51:45.033Z,99037.00
2022-09-12T06:54:17.250Z,99056.00
2022-09-12T06:56:45.096Z,99044.00
2022-09-12T06:59:12.002Z,99058.00
2022-09-12T07:01:40.278Z,99065.00
2022-09-12T07:04:07.326Z,99047.00
2022-09-12T07:06:40.829Z,99069.00
2022-09-12T07:09:12.233Z,99067.00
2022-09-12T07:11:47.205Z,99058.00
2022-09-12T07:14:29.067Z,99050.00
2022-09-12T07:17:21.858Z,98980.00
2022-09-12T07:19:50.937Z,98993.00
2022-09-12T07:22:17.727Z,99000.00
2022-09-12T07:24:45.809Z,99054.00
2022-09-12T07:27:12.646Z,99055.00
2022-09-12T07:29:39.420Z,99049.00
2022-09-12T07:32:06.822Z,99056.00
2022-09-12T07:34:38.602Z,99057.00
2022-09-12T07:37:21.263Z,99054.00
2022-09-12T07:43:30.635Z,98993.00
2022-09-12T07:45:58.264Z,99036.00
2022-09-12T07:48:25.157Z,99052.00
2022-09-12T07:51:04.859Z,99044.00
2022-09-12T07:53:35.433Z,99034.00
2022-09-12T07:56:04.486Z,99051.00
2022-09-12T07:58:36.092Z,99048.00
2022-09-12T08:01:18.814Z,99044.00
2022-09-12T08:03:50.351Z,99055.00
2022-09-12T08:06:20.860Z,99048.00
2022-09-12T08:08:54.237Z,99018.00
2022-09-12T08:11:23.585Z,99041.00
2022-09-12T08:13:55.296Z,99034.00
2022-09-12T08:16:27.662Z,99049.00
2022-09-12T08:18:54.509Z,99033.00
2022-09-12T08:24:59.986Z,99055.00
2022-09-12T08:31:51.862Z,99039.00
2022-09-12T08:34:21.049Z,99040.00
2022-09-12T08:36:48.000Z,99027.00
2022-09-12T08:39:15.098Z,99044.00
2022-09-12T08:41:58.415Z,99037.00
2022-09-12T08:45:23.901Z,99047.00
2022-09-12T08:47:51.182Z,99040.00
2022-09-12T08:58:27.857Z,98988.00
2022-09-12T09:01:30.218Z,99050.00
2022-09-12T09:12:34.432Z,99054.00
2022-09-12T09:15:29.477Z,99042.00
2022-09-12T09:18:12.982Z,99041.00
2022-09-12T09:20:52.410Z,99033.00
2022-09-12T09:23:44.023Z,99044.00
2022-09-12T09:26:26.674Z,99029.00
2022-09-12T09:29:16.575Z,99032.00
2022-09-12T09:31:51.740Z,99031.00
2022-09-12T09:34:22.449Z,99026.00
2022-09-12T09:37:14.022Z,99020.00
2022-09-12T09:40:20.522Z,99012.00
2022-09-12T09:43:00.761Z,99013.00
2022-09-12T09:45:29.356Z,99017.00
2022-09-12T09:48:32.504Z,99008.00
2022-09-12T09:51:03.581Z,99004.00
2022-09-12T09:53:46.155Z,99019.00
2022-09-12T09:56:27.908Z,99011.00
2022-09-12T09:58:55.001Z,99010.00
2022-09-12T10:01:22.312Z,99001.00
2022-09-12T10:03:53.293Z,99014.00
2022-09-12T10:06:22.748Z,99007.00
2022-09-12T10:08:50.996Z,99014.00
2022-09-12T10:11:23.187Z,99005.00
2022-09-12T10:13:59.937Z,99001.00
2022-09-12T10:16:54.250Z,98995.00
2022-09-12T10:19:24.799Z,99017.00
2022-09-12T10:21:56.788Z,99005.00
2022-09-12T10:24:35.359Z,99014.00
2022-09-12T10:27:30.042Z,99004.00
2022-09-12T10:30:19.536Z,99007.00
2022-09-12T10:32:54.009Z,99004.00
2022-09-12T10:35:30.964Z,98994.00
2022-09-12T10:38:05.947Z,99004.00
2022-09-12T10:40:44.207Z,98997.00
2022-09-12T10:43:29.705Z,98980.00
2022-09-12T10:46:18.515Z,98992.00
2022-09-12T10:48:51.482Z,98981.00
2022-09-12T10:51:24.060Z,98982.00
2022-09-12T10:53:54.642Z,98972.00
2022-09-12T10:56:28.694Z,98976.00
2022-09-12T10:59:32.257Z,98972.00
2022-09-12T11:02:05.555Z,98973.00
2022-09-12T11:05:05.891Z,98970.00
2022-09-12T11:07:45.987Z,98973.00
2022-09-12T11:10:54.716Z,98971.00
2022-09-12T11:13:40.640Z,98972.00
2022-09-12T11:16:16.117Z,98969.00
2022-09-12T11:19:04.044Z,98968.00
2022-09-12T11:21:58.999Z,98967.00
2022-09-12T11:25:15.251Z,98962.00
2022-09-12T11:28:13.312Z,98963.00
2022-09-12T11:31:05.165Z,98965.00
2022-09-12T11:33:46.478Z,98951.00
2022-09-12T11:36:49.378Z,98943.00
2022-09-12T11:39:26.909Z,98949.00
2022-09-12T11:42:03.335Z,98938.00
2022-09-12T11:44:42.740Z,98942.00
2022-09-12T11:47:14.486Z,98944.00
2022-09-12T11:49:48.849Z,98931.00
2022-09-12T11:52:29.436Z,98921.00
2022-09-12T11:55:17.467Z,98934.00
2022-09-12T11:58:01.527Z,98924.00
2022-09-12T12:00:39.515Z,98933.00
2022-09-12T12:03:20.465Z,98929.00
2022-09-12T12:06:05.834Z,98923.00
2022-09-12T12:08:40.099Z,98923.00
2022-09-12T12:11:08.712Z,98921.00
2022-09-12T12:13:58.298Z,98916.00
2022-09-12T12:16:32.953Z,98904.00
2022-09-12T12:19:05.516Z,98908.00
2022-09-12T12:21:40.120Z,98916.00
2022-09-12T12:24:10.111Z,98909.00
2022-09-12T12:26:40.082Z,98897.00
2022-09-12T12:29:44.571Z,98918.00
2022-09-12T12:32:11.449Z,98908.00
2022-09-12T12:34:43.798Z,98914.00
2022-09-12T12:37:19.835Z,98916.00
2022-09-12T12:39:50.977Z,98896.00
2022-09-12T12:42:34.471Z,98899.00
2022-09-12T12:45:10.774Z,98895.00
2022-09-12T12:47:50.654Z,98894.00
2022-09-12T12:50:19.669Z,98898.00
2022-09-12T12:52:58.033Z,98888.00
2022-09-12T12:55:39.034Z,98872.00
2022-09-12T12:58:27.203Z,98872.00
2022-09-12T13:01:20.867Z,98876.00
2022-09-12T13:04:01.604Z,98881.00
2022-09-12T13:06:37.785Z,98869.00
2022-09-12T13:09:25.576Z,98851.00
2022-09-12T13:12:24.280Z,98872.00
2022-09-12T13:15:02.937Z,98864.00
2022-09-12T13:17:40.493Z,98875.00
2022-09-12T13:32:01.567Z,98844.00
2022-09-12T13:34:40.520Z,98865.00
2022-09-12T13:37:47.662Z,98843.00
2022-09-12T13:40:57.295Z,98856.00
2022-09-12T13:43:40.575Z,98838.00
2022-09-12T13:46:12.850Z,98848.00
2022-09-12T13:48:40.754Z,98848.00
2022-09-12T13:51:07.914Z,98830.00
2022-09-12T13:53:46.741Z,98838.00
2022-09-12T13:56:19.675Z,98837.00
2022-09-12T13:59:02.717Z,98826.00
2022-09-12T14:01:43.587Z,98829.00
2022-09-12T14:04:42.969Z,98824.00
2022-09-12T14:07:25.082Z,98819.00
2022-09-12T14:09:58.998Z,98819.00
2022-09-12T14:12:36.931Z,98819.00
2022-09-12T14:15:04.630Z,98821.00
2022-09-12T14:17:39.595Z,98814.00
2022-09-12T14:20:18.470Z,98824.00
2022-09-12T14:22:50.557Z,98805.00
2022-09-12T14:25:25.089Z,98817.00
2022-09-12T14:27:56.722Z,98814.00
2022-09-12T14:30:30.647Z,98820.00
2022-09-12T14:33:12.199Z,98818.00
2022-09-12T14:35:43.849Z,98817.00
2022-09-12T14:38:16.545Z,98810.00
2022-09-12T14:40:49.095Z,98804.00
2022-09-12T14:43:27.709Z,98809.00
2022-09-12T14:46:02.733Z,98794.00
2022-09-12T14:48:42.185Z,98800.00
2022-09-12T14:51:21.105Z,98805.00
2022-09-12T14:53:49.894Z,98803.00
2022-09-12T14:56:16.960Z,98799.00
2022-09-12T14:58:43.723Z,98793.00
2022-09-12T15:01:13.226Z,98798.00
2022-09-12T15:03:49.666Z,98791.00
2022-09-12T15:06:30.598Z,98787.00
2022-09-12T15:09:02.946Z,98791.00
2022-09-12T15:11:29.938Z,98783.00
2022-09-12T15:13:56.686Z,98774.00
2022-09-12T15:16:23.554Z,98779.00
2022-09-12T15:18:50.374Z,98780.00
2022-09-12T15:21:21.137Z,98782.00
2022-09-12T15:23:51.053Z,98776.00
2022-09-12T15:26:22.553Z,98769.00
2022-09-12T15:28:51.183Z,98780.00
2022-09-12T15:31:29.429Z,98776.00
2022-09-12T15:34:00.107Z,98773.00
2022-09-12T15:36:28.823Z,98769.00
2022-09-12T15:38:56.245Z,98766.00
2022-09-12T15:41:27.846Z,98776.00
2022-09-12T15:43:54.678Z,98763.00
2022-09-12T15:46:21.685Z,98769.00
2022-09-12T15:48:48.877Z,98770.00
2022-09-12T15:51:18.393Z,98764.00
2022-09-12T15:53:46.780Z,98759.00
2022-09-12T15:56:16.779Z,98757.00
2022-09-12T15:58:57.599Z,98754.00
2022-09-12T16:01:26.364Z,98756.00
2022-09-12T16:03:53.241Z,98761.00
2022-09-12T16:06:20.139Z,98760.00
2022-09-12T16:08:47.075Z,98742.00
2022-09-12T16:11:26.322Z,98752.00
2022-09-12T16:13:55.647Z,98747.00
2022-09-12T16:16:22.673Z,98735.00
2022-09-12T16:18:49.595Z,98739.00
2022-09-12T16:21:16.390Z,98742.00
2022-09-12T16:23:47.700Z,98738.00
2022-09-12T16:26:15.146Z,98738.00
2022-09-12T16:28:42.232Z,98731.00
2022-09-12T16:31:13.248Z,98743.00
2022-09-12T16:33:40.726Z,98744.00
2022-09-12T16:36:14.304Z,98742.00
2022-09-12T16:38:47.130Z,98747.00
2022-09-12T16:41:16.117Z,98743.00
2022-09-12T16:43:43.530Z,98744.00
2022-09-12T16:46:23.525Z,98728.00
2022-09-12T16:48:53.997Z,98742.00
2022-09-12T16:51:28.038Z,98741.00
2022-09-12T16:53:56.371Z,98742.00
2022-09-12T16:56:24.226Z,98738.00
2022-09-12T16:58:51.758Z,98734.00
2022-09-12T17:01:25.443Z,98743.00
2022-09-12T17:07:26.944Z,98710.00
2022-09-12T17:09:53.744Z,98737.00
2022-09-12T17:12:20.580Z,98738.00
2022-09-12T17:14:47.342Z,98726.00
2022-09-12T17:17:14.195Z,98736.00
2022-09-12T17:19:40.991Z,98720.00
2022-09-12T17:22:07.745Z,98723.00
2022-09-12T17:24:34.614Z,98713.00
2022-09-12T17:27:01.528Z,98731.00
2022-09-12T17:29:28.474Z,98721.00
2022-09-12T17:31:55.716Z,98720.00
2022-09-12T17:34:23.351Z,98737.00
2022-09-12T17:36:50.232Z,98725.00
2022-09-12T17:39:17.063Z,98734.00
2022-09-12T17:41:48.931Z,98730.00
2022-09-12T17:44:15.902Z,98730.00
2022-09-12T17:46:43.411Z,98734.00
2022-09-12T17:49:17.282Z,98731.00
2022-09-12T17:51:44.404Z,98726.00
2022-09-12T17:54:17.854Z,98709.00
2022-09-12T17:56:48.937Z,98727.00
2022-09-12T17:59:21.674Z,98723.00
2022-09-12T18:02:07.498Z,98709.00
2022-09-12T18:04:34.594Z,98730.00
2022-09-12T18:07:01.485Z,98726.00
2022-09-12T18:09:28.681Z,98732.00
2022-09-12T18:11:56.042Z,98734.00
2022-09-12T18:14:23.724Z,98736.00
2022-09-12T18:16:50.650Z,98719.00
2022-09-12T18:19:18.294Z,98736.00
2022-09-12T18:21:45.402Z,98734.00
2022-09-12T18:24:12.630Z,98728.00
2022-09-12T18:26:39.514Z,98742.00
2022-09-12T18:29:06.761Z,98717.00
2022-09-12T18:31:33.747Z,98744.00
2022-09-12T18:34:01.330Z,98733.00
2022-09-12T18:36:29.123Z,98756.00
2022-09-12T18:38:59.176Z,98752.00
2022-09-12T18:41:28.810Z,98758.00
2022-09-12T18:43:58.922Z,98749.00
2022-09-12T18:46:28.361Z,98750.00
2022-09-12T18:48:57.971Z,98731.00
2022-09-12T18:51:31.822Z,98727.00
2022-09-12T18:54:02.886Z,98729.00
2022-09-12T18:56:32.943Z,98739.00
2022-09-12T18:59:02.131Z,98749.00
2022-09-12T19:01:32.832Z,98747.00
2022-09-12T19:04:01.847Z,98749.00
2022-09-12T19:06:33.094Z,98743.00
2022-09-12T19:09:06.675Z,98735.00
2022-09-12T19:11:35.973Z,98739.00
2022-09-12T19:14:03.227Z,98729.00
2022-09-12T19:16:30.851Z,98738.00
2022-09-12T19:18:58.542Z,98738.00
2022-09-12T19:21:29.951Z,98741.00
2022-09-12T19:24:10.015Z,98739.00
2022-09-12T19:26:38.960Z,98733.00
2022-09-12T19:29:07.026Z,98718.00
2022-09-12T19:31:34.065Z,98723.00
2022-09-12T19:34:07.013Z,98727.00
2022-09-12T19:36:44.931Z,98729.00
2022-09-12T19:39:12.835Z,98706.00
2022-09-12T19:41:39.674Z,98733.00
2022-09-12T19:44:06.607Z,98722.00
2022-09-12T19:46:33.436Z,98733.00
2022-09-12T19:49:00.410Z,98741.00
2022-09-12T19:51:27.269Z,98740.00
2022-09-12T19:53:54.183Z,98730.00
2022-09-12T19:56:21.594Z,98727.00
2022-09-12T19:58:55.850Z,98723.00
2022-09-12T20:01:28.191Z,98724.00
2022-09-12T20:03:57.098Z,98706.00
2022-09-12T20:06:25.556Z,98729.00
2022-09-12T20:08:52.351Z,98732.00
2022-09-12T20:11:23.431Z,98725.00
2022-09-12T20:13:50.491Z,98729.00
2022-09-12T20:16:25.541Z,98722.00
2022-09-12T20:19:02.897Z,98724.00
2022-09-12T20:21:32.596Z,98717.00
2022-09-12T20:24:09.960Z,98696.00
2022-09-12T20:26:37.121Z,98720.00
2022-09-12T20:29:05.842Z,98717.00
2022-09-12T20:31:34.102Z,98714.00
2022-09-12T20:34:01.455Z,98705.00
2022-09-12T20:36:28.789Z,98716.00
2022-09-12T20:39:01.182Z,98708.00
2022-09-12T20:41:31.568Z,98706.00
2022-09-12T20:43:58.599Z,98680.00
2022-09-12T20:46:28.457Z,98697.00
2022-09-12T20:48:56.215Z,98687.00
2022-09-12T20:51:26.405Z,98666.00
2022-09-12T20:53:54.982Z,98694.00
2022-09-12T20:56:23.975Z,98695.00
2022-09-12T20:58:51.110Z,98684.00
2022-09-12T21:01:23.200Z,98690.00
2022-09-12T21:03:50.398Z,98672.00
2022-09-12T21:06:18.195Z,98659.00
2022-09-12T21:08:46.989Z,98670.00
2022-09-12T21:11:15.108Z,98672.00
2022-09-12T21:13:42.289Z,98675.00
2022-09-12T21:16:17.213Z,98680.00
2022-09-12T21:18:44.662Z,98659.00
2022-09-12T21:21:14.240Z,98670.00
2022-09-12T21:23:41.446Z,98656.00
2022-09-12T21:26:08.455Z,98672.00
2022-09-12T21:28:36.053Z,98670.00
2022-09-12T21:31:03.266Z,98670.00
2022-09-12T21:33:30.362Z,98660.00
2022-09-12T21:36:03.620Z,98673.00
2022-09-12T21:38:31.254Z,98667.00
2022-09-12T21:41:04.236Z,98680.00
2022-09-12T21:43:31.077Z,98673.00
2022-09-12T21:45:59.991Z,98669.00
2022-09-12T21:48:27.321Z,98681.00
2022-09-12T21:50:54.879Z,98679.00
2022-09-12T21:53:21.967Z,98689.00
2022-09-12T21:55:48.948Z,98687.00
2022-09-12T21:58:16.155Z,98693.00
2022-09-12T22:00:43.987Z,98696.00
2022-09-12T22:03:12.398Z,98688.00
2022-09-12T22:05:43.142Z,98698.00
2022-09-12T22:08:11.267Z,98704.00
2022-09-12T22:10:41.088Z,98707.00
2022-09-12T22:13:08.099Z,98689.00
2022-09-12T22:15:42.100Z,98708.00
2022-09-12T22:18:08.975Z,98703.00
2022-09-12T22:20:35.774Z,98698.00
2022-09-12T22:23:24.528Z,98684.00
2022-09-12T22:25:55.821Z,98684.00
2022-09-12T22:28:23.148Z,98678.00
2022-09-12T22:30:49.948Z,98675.00
2022-09-12T22:33:16.951Z,98677.00
2022-09-12T22:35:44.260Z,98689.00
2022-09-12T22:38:11.031Z,98681.00
2022-09-12T22:40:38.298Z,98671.00
2022-09-12T22:43:05.105Z,98684.00
2022-09-12T22:45:32.345Z,98676.00
2022-09-12T22:48:00.744Z,98680.00
2022-09-12T22:50:28.533Z,98684.00
2022-09-12T22:52:55.350Z,98673.00
2022-09-12T22:55:22.122Z,98678.00
2022-09-12T22:57:49.268Z,98685.00
2022-09-12T23:00:16.540Z,98668.00
2022-09-12T23:02:43.744Z,98662.00
2022-09-12T23:05:10.880Z,98680.00
2022-09-12T23:07:37.802Z,98678.00
2022-09-12T23:10:05.115Z,98656.00
2022-09-12T23:12:32.504Z,98664.00
2022-09-12T23:14:59.381Z,98662.00
2022-09-12T23:17:26.170Z,98652.00
2022-09-12T23:19:53.003Z,98656.00
2022-09-12T23:22:19.791Z,98646.00
2022-09-12T23:24:47.189Z,98647.00
2022-09-12T23:27:13.946Z,98611.00
2022-09-12T23:29:40.772Z,98653.00
2022-09-12T23:32:07.749Z,98628.00
2022-09-12T23:34:34.617Z,98635.00
2022-09-12T23:37:01.419Z,98630.00
2022-09-12T23:39:28.206Z,98648.00
2022-09-12T23:41:55.530Z,98644.00
2022-09-12T23:44:23.244Z,98641.00
2022-09-12T23:46:49.928Z,98625.00
2022-09-12T23:49:16.719Z,98626.00
2022-09-12T23:51:44.460Z,98631.00
2022-09-12T23:54:11.306Z,98617.00
2022-09-12T23:56:38.141Z,98614.00
2022-09-12T23:59:05.139Z,98603.00
